تهران, ایران

07:55 AM IRST on سپتامبر 24, 2014 (GMT +0330)
molasadra | Change Station
CLOSE
Current Station
ایستگاههای هواشناسی شخصی
Location: Tehran, TEHRAN
Elevation: 4774 ft
Nearby Weather Stations

Elev 4774 ft 35.76 °N, 51.40 °E | Updated 57 seconds ago

Clear
صاف
71.9 °F
Feels Like 76 °F
N
1.0
باد متغير باد from ENE
Gusts 4.0 mph

امروز
High -- | Low -- °F
--% Chance of Precip.
دیروز
High -- | Low -- °F
Precip. -- در
5:53 AM 5:59 PM
Waning Crescent, 0% visible
فشار 29.95 در
ديد -9999.0 مايل، ميل (در برابر كيلومتر
ابری
شاخص گرما 76 °F
قطره شبنم 34 °F
رطوبت 25%
بارش باران 0.00 در
برف عمیق Not available.
مادون قرمز Not available.
Pollen Not available.
تمیزی هوا Not available.
Flu Activity Not available.
METAR OIII 240400Z 31006KT CAVOK 22/00 Q1014 A2996 NOSIG

More Conditions Fewer Conditions

فشار 29.95 در
ديد -9999.0 مايل، ميل (در برابر كيلومتر
ابری
شاخص گرما 76 °F
قطره شبنم 34 °F
رطوبت 25%
بارش باران 0.00 در
برف عمیق Not available.
مادون قرمز Not available.
Pollen Not available.
تمیزی هوا Not available.
Flu Activity Not available.
METAR OIII 240400Z 31006KT CAVOK 22/00 Q1014 A2996 NOSIG

More Conditions Fewer Conditions

10-Day Weather Forecast

Almanac

ستاره شناسی

Sep. 24, 2014 Rise Set
وقت حقیقی 5:53 AM IRST 5:59 PM IRST
تاریک و روشن اجتماعی 5:28 AM IRST 6:24 PM IRST
تاریک روشن دریایی 4:58 AM IRST 6:54 PM IRST
شفق و فلق نجومی 4:28 AM IRST 7:24 PM IRST
ماه 5:51 AM IRST 5:58 PM IRST
میزان روشنایی روز 12h 56m
طول روز
12h 05m
Tomorrow will be 2m 15s shorter.
Waning Crescent, 0% of the Moon is Illuminated
امروز
Waning Crescent
Sep 24
New
Oct 1
ربع اول
Oct 8
ماه کامل
Oct 15
ربع آخر

Yesterday's Extremes

Country Highs Country Lows

Community

WunderPhotos

Upload Photos

1,755,890 photos uploaded!

WunderBlogs® & News

Nearby

تمیزی هوا

Not available.

عمق برف

Not available.

Earthquake Activity

شهر Distance Mag. Time & Date
No recent earthquake activity has been reported nearby.
Minimum magnitude displayed is 2.5.

Coastal Water Temperatures

منطقه درجه حرارت
No Stations Reporting

Nearby Weather Stations